SCO15WC EGPH-EGAA
Flight info
| Callsign | SCO15WC |
|---|---|
| Flight time | N/A |
| Altitude | 22000 |
| Route | GOSAM P600 BLACA DCT BELZU |
| Aircraft | AT76/M-SDFGIRY/S |
Departure
| Time | 2026-04-21 22:20 |
|---|---|
| Airport | Edinburgh Airport (EGPH) |
Arrival
| Time | N/A |
|---|---|
| Airport | Belfast International Airport (EGAA) |
| Time | Latitude | Longitude | Altitude | Speed | Heading |
|---|---|---|---|---|---|
| 2026-04-21 22:03 | 55.94858 | -3.36610 | 109 ft | 0 kts | 146° |
| 2026-04-21 22:12 | 55.94859 | -3.36612 | 107 ft | 3 kts | 146° |
| 2026-04-21 22:12 | 55.94875 | -3.36630 | 107 ft | 3 kts | 146° |
| 2026-04-21 22:12 | 55.94890 | -3.36649 | 109 ft | 3 kts | 146° |
| 2026-04-21 22:13 | 55.94905 | -3.36669 | 105 ft | 3 kts | 153° |
| 2026-04-21 22:13 | 55.94924 | -3.36675 | 107 ft | 3 kts | 200° |
| 2026-04-21 22:13 | 55.94931 | -3.36670 | 106 ft | 0 kts | 219° |
| 2026-04-21 22:15 | 55.94908 | -3.36709 | 109 ft | 8 kts | 236° |
| 2026-04-21 22:15 | 55.94914 | -3.36818 | 108 ft | 10 kts | 302° |
| 2026-04-21 22:15 | 55.94910 | -3.36944 | 108 ft | 12 kts | 243° |
| 2026-04-21 22:16 | 55.94861 | -3.37097 | 109 ft | 16 kts | 238° |
| 2026-04-21 22:16 | 55.94798 | -3.37276 | 109 ft | 18 kts | 239° |
| 2026-04-21 22:16 | 55.94730 | -3.37478 | 107 ft | 20 kts | 238° |
| 2026-04-21 22:16 | 55.94658 | -3.37693 | 109 ft | 20 kts | 240° |
| 2026-04-21 22:17 | 55.94585 | -3.37910 | 108 ft | 21 kts | 238° |
| 2026-04-21 22:17 | 55.94506 | -3.38138 | 107 ft | 23 kts | 238° |
| 2026-04-21 22:17 | 55.94425 | -3.38376 | 109 ft | 22 kts | 239° |
| 2026-04-21 22:17 | 55.94349 | -3.38600 | 112 ft | 20 kts | 239° |
| 2026-04-21 22:18 | 55.94285 | -3.38812 | 112 ft | 19 kts | 258° |
| 2026-04-21 22:18 | 55.94336 | -3.38919 | 112 ft | 7 kts | 330° |
| 2026-04-21 22:18 | 55.94387 | -3.38966 | 110 ft | 8 kts | 346° |
| 2026-04-21 22:18 | 55.94422 | -3.38951 | 110 ft | 2 kts | 29° |
| 2026-04-21 22:19 | 55.94427 | -3.38940 | 111 ft | 2 kts | 52° |
| 2026-04-21 22:19 | 55.94428 | -3.38934 | 112 ft | 0 kts | 59° |
| 2026-04-21 22:19 | 55.94500 | -3.38727 | 108 ft | 51 kts | 59° |
| 2026-04-21 22:20 | 55.94785 | -3.37888 | 113 ft | 102 kts | 59° |
| 2026-04-21 22:20 | 55.95207 | -3.36730 | 482 ft | 113 kts | 54° |
| 2026-04-21 22:20 | 55.95720 | -3.35498 | 884 ft | 134 kts | 54° |
| 2026-04-21 22:20 | 55.96347 | -3.34072 | 1260 ft | 155 kts | 58° |
| 2026-04-21 22:21 | 55.97074 | -3.32560 | 1718 ft | 166 kts | 44° |
| 2026-04-21 22:21 | 55.97979 | -3.31223 | 2255 ft | 171 kts | 41° |
| 2026-04-21 22:21 | 55.98923 | -3.29913 | 2846 ft | 173 kts | 41° |
| 2026-04-21 22:21 | 56.00036 | -3.29058 | 3397 ft | 178 kts | 17° |
| 2026-04-21 22:22 | 56.01241 | -3.28608 | 3946 ft | 181 kts | 17° |
| 2026-04-21 22:22 | 56.02485 | -3.28149 | 4437 ft | 188 kts | 16° |
| 2026-04-21 22:22 | 56.03834 | -3.27806 | 4717 ft | 206 kts | 2° |
| 2026-04-21 22:22 | 56.05237 | -3.28856 | 4820 ft | 236 kts | 322° |
| 2026-04-21 22:23 | 56.06137 | -3.31420 | 4923 ft | 256 kts | 287° |
| 2026-04-21 22:23 | 56.06158 | -3.34650 | 4966 ft | 268 kts | 254° |
| 2026-04-21 22:23 | 56.05258 | -3.37566 | 4989 ft | 270 kts | 226° |
| 2026-04-21 22:23 | 56.03954 | -3.40008 | 4990 ft | 273 kts | 216° |
| 2026-04-21 22:24 | 56.02244 | -3.41342 | 4990 ft | 268 kts | 184° |
| 2026-04-21 22:24 | 56.00509 | -3.41741 | 4040 ft | 229 kts | 205° |
| 2026-04-21 22:24 | 56.00019 | -3.44702 | 3415 ft | 244 kts | 265° |
| 2026-04-21 22:24 | 56.00002 | -3.47677 | 3989 ft | 243 kts | 272° |
| 2026-04-21 22:25 | 55.99793 | -3.50608 | 4480 ft | 237 kts | 245° |
| 2026-04-21 22:25 | 55.98906 | -3.52997 | 4857 ft | 222 kts | 238° |
| 2026-04-21 22:25 | 55.98284 | -3.55516 | 5407 ft | 222 kts | 250° |
| 2026-04-21 22:25 | 55.97760 | -3.58065 | 5991 ft | 218 kts | 246° |
| 2026-04-21 22:26 | 55.97148 | -3.60589 | 6331 ft | 222 kts | 242° |
| 2026-04-21 22:26 | 55.96747 | -3.63344 | 6225 ft | 245 kts | 256° |
| 2026-04-21 22:26 | 55.96052 | -3.66296 | 5988 ft | 256 kts | 248° |
| 2026-04-21 22:26 | 55.95569 | -3.69139 | 7118 ft | 223 kts | 253° |
| 2026-04-21 22:27 | 55.95109 | -3.71733 | 7656 ft | 221 kts | 249° |
| 2026-04-21 22:27 | 55.94671 | -3.74502 | 7717 ft | 241 kts | 252° |
| 2026-04-21 22:27 | 55.94164 | -3.77395 | 7966 ft | 246 kts | 249° |
| 2026-04-21 22:27 | 55.93571 | -3.80228 | 8440 ft | 240 kts | 246° |
| 2026-04-21 22:28 | 55.93071 | -3.83042 | 8831 ft | 239 kts | 258° |
| 2026-04-21 22:28 | 55.92972 | -3.86120 | 8907 ft | 257 kts | 271° |
| 2026-04-21 22:28 | 55.92990 | -3.89287 | 9366 ft | 251 kts | 267° |
| 2026-04-21 22:28 | 55.92671 | -3.92234 | 10019 ft | 238 kts | 241° |
| 2026-04-21 22:29 | 55.91483 | -3.94249 | 9848 ft | 249 kts | 194° |
| 2026-04-21 22:29 | 55.89729 | -3.93967 | 8993 ft | 269 kts | 154° |
| 2026-04-21 22:29 | 55.88142 | -3.92449 | 9294 ft | 237 kts | 144° |
| 2026-04-21 22:29 | 55.86856 | -3.90918 | 9536 ft | 208 kts | 142° |
| 2026-04-21 22:30 | 55.85563 | -3.89427 | 8338 ft | 243 kts | 146° |
| 2026-04-21 22:30 | 55.84026 | -3.87923 | 6851 ft | 272 kts | 150° |
| 2026-04-21 22:30 | 55.82330 | -3.86492 | 6207 ft | 262 kts | 153° |
| 2026-04-21 22:30 | 55.80758 | -3.85273 | 6104 ft | 240 kts | 150° |
| 2026-04-21 22:31 | 55.79470 | -3.83534 | 5596 ft | 235 kts | 127° |
| 2026-04-21 22:31 | 55.78823 | -3.81004 | 5272 ft | 222 kts | 98° |
| 2026-04-21 22:31 | 55.79124 | -3.78265 | 3925 ft | 233 kts | 68° |
| 2026-04-21 22:31 | 55.80218 | -3.76495 | 3618 ft | 207 kts | 27° |
| 2026-04-21 22:32 | 55.81523 | -3.75934 | 3568 ft | 176 kts | 19° |
| 2026-04-21 22:32 | 55.82571 | -3.75077 | 3296 ft | 161 kts | 43° |
| 2026-04-21 22:32 | 55.83299 | -3.73564 | 2777 ft | 161 kts | 60° |
| 2026-04-21 22:32 | 55.83864 | -3.71903 | 2595 ft | 151 kts | 63° |
| 2026-04-21 22:33 | 55.84364 | -3.70300 | 2385 ft | 148 kts | 63° |
| 2026-04-21 22:33 | 55.84868 | -3.68685 | 2231 ft | 151 kts | 63° |
| 2026-04-21 22:33 | 55.85369 | -3.67054 | 2208 ft | 148 kts | 64° |